Alberta, Virginia
Current Conditions -  °F | °C
As of 12:35 AM on Monday 22 Dec 2014 (Local Time) from KLVL Reporting Station
Overcast Overcast  
Wind Chill:   Ceiling: 4100
Heat Index:   Visibility: 10mi
Dew Point: -1°   Wind: 0mph
Humidity: 85%   Direction: NA
Pressure: 30.27"   Gusts: NA
Location:  36.87°N, 77.89°W
Report Text: KLVL 220535Z AUTO 00000KT 10SM BKN041 BKN050 OVC065 02/M01 A3027 RMK AO1 T00171006
Loading
Personal Weather Stations






























Interactive Weather Map New forecast layout! Learn more

10-Day Weather Forecast

Advertisements
Track Severe Weather on mobile